Preview of NWS' New Version of Forecast
This preview is not operational and should not be used for support decisions.

Terminal Aerodrome Forecast (TAF)

Issued by National Weather Service (NWS)

                            
000
FTUS42 KCAE 171730
TAFOGB
TAF
KOGB 171730Z 1718/1818 08005KT P6SM VCTS BKN050CB
     FM180200 VRB03KT P6SM SCT100
     FM180900 VRB02KT 4SM BR BKN008
     FM181400 29003KT P6SM FEW250=